sensor_id;sensor_type;location;lat;lon;timestamp;P1;durP1;ratioP1;P2;durP2;ratioP2
14143;SDS011;7152;48.348;10.980;2023-05-10T00:02:02;2.97;;;2.70;;
14143;SDS011;7152;48.348;10.980;2023-05-10T00:04:28;2.97;;;2.77;;
14143;SDS011;7152;48.348;10.980;2023-05-10T00:06:53;3.53;;;2.80;;
14143;SDS011;7152;48.348;10.980;2023-05-10T00:09:19;2.97;;;2.50;;
14143;SDS011;7152;48.348;10.980;2023-05-10T00:11:45;2.70;;;2.50;;
14143;SDS011;7152;48.348;10.980;2023-05-10T00:14:11;3.93;;;2.67;;
14143;SDS011;7152;48.348;10.980;2023-05-10T00:16:36;3.43;;;2.40;;
14143;SDS011;7152;48.348;10.980;2023-05-10T00:19:02;2.40;;;2.20;;
14143;SDS011;7152;48.348;10.980;2023-05-10T00:21:28;3.33;;;3.03;;
14143;SDS011;7152;48.348;10.980;2023-05-10T00:23:54;2.43;;;2.23;;
14143;SDS011;7152;48.348;10.980;2023-05-10T00:26:20;2.83;;;2.53;;
14143;SDS011;7152;48.348;10.980;2023-05-10T00:28:46;2.57;;;2.37;;
14143;SDS011;7152;48.348;10.980;2023-05-10T00:31:11;2.83;;;2.17;;
14143;SDS011;7152;48.348;10.980;2023-05-10T00:33:37;2.90;;;2.40;;
14143;SDS011;7152;48.348;10.980;2023-05-10T00:36:02;3.73;;;2.50;;
14143;SDS011;7152;48.348;10.980;2023-05-10T00:38:28;2.73;;;2.53;;
14143;SDS011;7152;48.348;10.980;2023-05-10T00:40:54;2.80;;;2.57;;
14143;SDS011;7152;48.348;10.980;2023-05-10T00:43:19;2.70;;;2.50;;
14143;SDS011;7152;48.348;10.980;2023-05-10T00:45:45;2.87;;;2.60;;
14143;SDS011;7152;48.348;10.980;2023-05-10T00:48:11;3.33;;;2.43;;
14143;SDS011;7152;48.348;10.980;2023-05-10T00:50:37;2.60;;;2.27;;
14143;SDS011;7152;48.348;10.980;2023-05-10T00:53:03;2.40;;;2.20;;
14143;SDS011;7152;48.348;10.980;2023-05-10T00:55:29;2.40;;;2.20;;
14143;SDS011;7152;48.348;10.980;2023-05-10T00:57:55;2.50;;;2.40;;
14143;SDS011;7152;48.348;10.980;2023-05-10T01:00:21;2.43;;;2.23;;
14143;SDS011;7152;48.348;10.980;2023-05-10T01:02:47;2.30;;;2.10;;
14143;SDS011;7152;48.348;10.980;2023-05-10T01:05:13;2.43;;;2.23;;
14143;SDS011;7152;48.348;10.980;2023-05-10T01:07:39;2.73;;;2.00;;
14143;SDS011;7152;48.348;10.980;2023-05-10T01:10:05;3.57;;;2.27;;
14143;SDS011;7152;48.348;10.980;2023-05-10T01:12:33;2.13;;;2.00;;
14143;SDS011;7152;48.348;10.980;2023-05-10T01:15:03;2.30;;;2.10;;
14143;SDS011;7152;48.348;10.980;2023-05-10T01:17:30;2.13;;;1.97;;
14143;SDS011;7152;48.348;10.980;2023-05-10T01:19:57;1.87;;;1.77;;
14143;SDS011;7152;48.348;10.980;2023-05-10T01:36:45;2.80;;;2.33;;
14143;SDS011;7152;48.348;10.980;2023-05-10T01:41:47;1.77;;;1.67;;
14143;SDS011;7152;48.348;10.980;2023-05-10T01:47:01;1.70;;;1.60;;
14143;SDS011;7152;48.348;10.980;2023-05-10T01:49:40;1.50;;;1.40;;
14143;SDS011;7152;48.348;10.980;2023-05-10T01:52:15;1.93;;;1.70;;
14143;SDS011;7152;48.348;10.980;2023-05-10T01:54:53;1.60;;;1.50;;
14143;SDS011;7152;48.348;10.980;2023-05-10T01:57:25;1.50;;;1.40;;
14143;SDS011;7152;48.348;10.980;2023-05-10T01:59:56;1.50;;;1.40;;
14143;SDS011;7152;48.348;10.980;2023-05-10T02:02:24;1.40;;;1.30;;
14143;SDS011;7152;48.348;10.980;2023-05-10T02:04:52;1.50;;;1.40;;
14143;SDS011;7152;48.348;10.980;2023-05-10T02:07:20;1.20;;;1.10;;
14143;SDS011;7152;48.348;10.980;2023-05-10T02:09:48;3.20;;;1.33;;
14143;SDS011;7152;48.348;10.980;2023-05-10T02:12:15;1.77;;;1.60;;
14143;SDS011;7152;48.348;10.980;2023-05-10T02:14:41;1.73;;;1.53;;
14143;SDS011;7152;48.348;10.980;2023-05-10T02:17:08;2.23;;;1.33;;
14143;SDS011;7152;48.348;10.980;2023-05-10T02:19:36;1.13;;;1.10;;
14143;SDS011;7152;48.348;10.980;2023-05-10T02:22:03;1.40;;;1.30;;
14143;SDS011;7152;48.348;10.980;2023-05-10T02:24:31;0.90;;;0.90;;
14143;SDS011;7152;48.348;10.980;2023-05-10T02:26:57;2.20;;;1.07;;
14143;SDS011;7152;48.348;10.980;2023-05-10T02:29:24;1.53;;;1.00;;
14143;SDS011;7152;48.348;10.980;2023-05-10T02:31:52;1.10;;;1.00;;
14143;SDS011;7152;48.348;10.980;2023-05-10T02:34:19;1.67;;;1.17;;
14143;SDS011;7152;48.348;10.980;2023-05-10T02:36:47;1.23;;;0.90;;
14143;SDS011;7152;48.348;10.980;2023-05-10T02:39:13;1.30;;;0.90;;
14143;SDS011;7152;48.348;10.980;2023-05-10T02:41:41;2.90;;;1.10;;
14143;SDS011;7152;48.348;10.980;2023-05-10T02:44:08;1.67;;;0.90;;
14143;SDS011;7152;48.348;10.980;2023-05-10T02:46:35;1.00;;;1.00;;
14143;SDS011;7152;48.348;10.980;2023-05-10T02:49:02;1.37;;;1.00;;
14143;SDS011;7152;48.348;10.980;2023-05-10T02:51:30;1.33;;;0.90;;
14143;SDS011;7152;48.348;10.980;2023-05-10T02:53:59;0.97;;;0.80;;
14143;SDS011;7152;48.348;10.980;2023-05-10T02:56:33;1.13;;;0.80;;
14143;SDS011;7152;48.348;10.980;2023-05-10T02:59:00;2.00;;;0.90;;
14143;SDS011;7152;48.348;10.980;2023-05-10T03:01:26;1.30;;;0.90;;
14143;SDS011;7152;48.348;10.980;2023-05-10T03:03:52;0.70;;;0.70;;
14143;SDS011;7152;48.348;10.980;2023-05-10T03:06:17;0.77;;;0.77;;
14143;SDS011;7152;48.348;10.980;2023-05-10T03:08:43;1.93;;;0.70;;
14143;SDS011;7152;48.348;10.980;2023-05-10T03:14:21;1.60;;;0.67;;
14143;SDS011;7152;48.348;10.980;2023-05-10T03:17:15;1.53;;;0.80;;
14143;SDS011;7152;48.348;10.980;2023-05-10T03:19:52;1.73;;;0.87;;
14143;SDS011;7152;48.348;10.980;2023-05-10T03:22:22;0.80;;;0.80;;
14143;SDS011;7152;48.348;10.980;2023-05-10T03:24:51;0.77;;;0.77;;
14143;SDS011;7152;48.348;10.980;2023-05-10T03:27:20;1.30;;;0.60;;
14143;SDS011;7152;48.348;10.980;2023-05-10T03:29:48;0.60;;;0.60;;
14143;SDS011;7152;48.348;10.980;2023-05-10T03:32:16;1.63;;;1.13;;
14143;SDS011;7152;48.348;10.980;2023-05-10T03:34:41;0.90;;;0.73;;
14143;SDS011;7152;48.348;10.980;2023-05-10T03:37:10;0.50;;;0.50;;
14143;SDS011;7152;48.348;10.980;2023-05-10T03:39:36;0.60;;;0.60;;
14143;SDS011;7152;48.348;10.980;2023-05-10T03:42:01;1.53;;;0.60;;
14143;SDS011;7152;48.348;10.980;2023-05-10T03:44:27;0.57;;;0.57;;
14143;SDS011;7152;48.348;10.980;2023-05-10T03:46:53;0.57;;;0.57;;
14143;SDS011;7152;48.348;10.980;2023-05-10T03:49:18;0.60;;;0.60;;
14143;SDS011;7152;48.348;10.980;2023-05-10T03:51:44;1.60;;;0.70;;
14143;SDS011;7152;48.348;10.980;2023-05-10T03:54:09;1.47;;;0.60;;
14143;SDS011;7152;48.348;10.980;2023-05-10T03:56:35;1.87;;;0.40;;
14143;SDS011;7152;48.348;10.980;2023-05-10T03:59:00;0.97;;;0.90;;
14143;SDS011;7152;48.348;10.980;2023-05-10T04:01:26;0.50;;;0.50;;
14143;SDS011;7152;48.348;10.980;2023-05-10T04:03:52;0.60;;;0.60;;
14143;SDS011;7152;48.348;10.980;2023-05-10T04:06:17;0.73;;;0.47;;
14143;SDS011;7152;48.348;10.980;2023-05-10T04:08:43;1.03;;;0.40;;
14143;SDS011;7152;48.348;10.980;2023-05-10T04:11:10;1.27;;;0.30;;
14143;SDS011;7152;48.348;10.980;2023-05-10T04:13:37;0.37;;;0.30;;
14143;SDS011;7152;48.348;10.980;2023-05-10T04:16:03;0.37;;;0.30;;
14143;SDS011;7152;48.348;10.980;2023-05-10T04:18:29;0.53;;;0.50;;
14143;SDS011;7152;48.348;10.980;2023-05-10T04:20:55;0.30;;;0.30;;
14143;SDS011;7152;48.348;10.980;2023-05-10T04:23:20;0.33;;;0.33;;
14143;SDS011;7152;48.348;10.980;2023-05-10T04:25:46;0.30;;;0.30;;
14143;SDS011;7152;48.348;10.980;2023-05-10T04:28:12;0.93;;;0.40;;
14143;SDS011;7152;48.348;10.980;2023-05-10T04:30:38;0.50;;;0.50;;
14143;SDS011;7152;48.348;10.980;2023-05-10T04:33:03;0.67;;;0.60;;
14143;SDS011;7152;48.348;10.980;2023-05-10T04:35:29;0.40;;;0.40;;
14143;SDS011;7152;48.348;10.980;2023-05-10T04:37:55;0.33;;;0.30;;
14143;SDS011;7152;48.348;10.980;2023-05-10T04:40:20;0.50;;;0.50;;
14143;SDS011;7152;48.348;10.980;2023-05-10T04:42:46;0.70;;;0.50;;
14143;SDS011;7152;48.348;10.980;2023-05-10T04:45:12;0.43;;;0.43;;
14143;SDS011;7152;48.348;10.980;2023-05-10T04:47:39;0.87;;;0.43;;
14143;SDS011;7152;48.348;10.980;2023-05-10T04:50:05;0.50;;;0.50;;
14143;SDS011;7152;48.348;10.980;2023-05-10T04:52:31;0.60;;;0.43;;
14143;SDS011;7152;48.348;10.980;2023-05-10T04:54:57;0.90;;;0.60;;
14143;SDS011;7152;48.348;10.980;2023-05-10T04:57:22;0.47;;;0.47;;
14143;SDS011;7152;48.348;10.980;2023-05-10T04:59:48;0.50;;;0.50;;
14143;SDS011;7152;48.348;10.980;2023-05-10T05:02:13;2.70;;;0.63;;
14143;SDS011;7152;48.348;10.980;2023-05-10T05:04:39;0.70;;;0.60;;
14143;SDS011;7152;48.348;10.980;2023-05-10T05:07:05;1.03;;;0.53;;
14143;SDS011;7152;48.348;10.980;2023-05-10T05:09:30;0.70;;;0.67;;
14143;SDS011;7152;48.348;10.980;2023-05-10T05:11:57;1.23;;;0.70;;
14143;SDS011;7152;48.348;10.980;2023-05-10T05:14:23;1.00;;;0.70;;
14143;SDS011;7152;48.348;10.980;2023-05-10T05:16:50;0.60;;;0.60;;
14143;SDS011;7152;48.348;10.980;2023-05-10T05:19:19;1.83;;;0.70;;
14143;SDS011;7152;48.348;10.980;2023-05-10T05:21:44;0.50;;;0.40;;
14143;SDS011;7152;48.348;10.980;2023-05-10T05:24:10;2.27;;;0.70;;
14143;SDS011;7152;48.348;10.980;2023-05-10T05:26:37;0.60;;;0.60;;
14143;SDS011;7152;48.348;10.980;2023-05-10T05:29:03;1.30;;;0.70;;
14143;SDS011;7152;48.348;10.980;2023-05-10T05:31:29;1.67;;;1.23;;
14143;SDS011;7152;48.348;10.980;2023-05-10T05:33:55;0.80;;;0.77;;
14143;SDS011;7152;48.348;10.980;2023-05-10T05:36:21;0.70;;;0.70;;
14143;SDS011;7152;48.348;10.980;2023-05-10T05:38:46;1.37;;;0.80;;
14143;SDS011;7152;48.348;10.980;2023-05-10T05:41:12;1.90;;;0.80;;
14143;SDS011;7152;48.348;10.980;2023-05-10T05:43:38;1.23;;;1.00;;
14143;SDS011;7152;48.348;10.980;2023-05-10T05:46:07;0.77;;;0.70;;
14143;SDS011;7152;48.348;10.980;2023-05-10T05:48:32;1.30;;;0.97;;
14143;SDS011;7152;48.348;10.980;2023-05-10T05:50:58;0.70;;;0.60;;
14143;SDS011;7152;48.348;10.980;2023-05-10T05:53:24;1.23;;;0.70;;
14143;SDS011;7152;48.348;10.980;2023-05-10T05:55:53;0.80;;;0.80;;
14143;SDS011;7152;48.348;10.980;2023-05-10T05:58:20;2.50;;;0.70;;
14143;SDS011;7152;48.348;10.980;2023-05-10T06:00:46;0.60;;;0.60;;
14143;SDS011;7152;48.348;10.980;2023-05-10T06:03:12;2.33;;;0.93;;
14143;SDS011;7152;48.348;10.980;2023-05-10T06:05:38;2.87;;;1.10;;
14143;SDS011;7152;48.348;10.980;2023-05-10T06:08:03;0.90;;;0.80;;
14143;SDS011;7152;48.348;10.980;2023-05-10T06:10:29;1.37;;;0.67;;
14143;SDS011;7152;48.348;10.980;2023-05-10T06:12:55;0.70;;;0.70;;
14143;SDS011;7152;48.348;10.980;2023-05-10T06:15:21;1.17;;;1.07;;
14143;SDS011;7152;48.348;10.980;2023-05-10T06:17:46;1.43;;;0.93;;
14143;SDS011;7152;48.348;10.980;2023-05-10T06:20:14;1.50;;;1.20;;
14143;SDS011;7152;48.348;10.980;2023-05-10T06:22:40;1.33;;;0.90;;
14143;SDS011;7152;48.348;10.980;2023-05-10T06:25:06;1.87;;;1.00;;
14143;SDS011;7152;48.348;10.980;2023-05-10T06:27:32;1.20;;;1.10;;
14143;SDS011;7152;48.348;10.980;2023-05-10T06:29:58;2.13;;;1.00;;
14143;SDS011;7152;48.348;10.980;2023-05-10T06:32:23;1.17;;;1.07;;
14143;SDS011;7152;48.348;10.980;2023-05-10T06:34:49;2.07;;;1.00;;
14143;SDS011;7152;48.348;10.980;2023-05-10T06:37:15;1.33;;;1.10;;
14143;SDS011;7152;48.348;10.980;2023-05-10T06:39:41;2.33;;;1.00;;
14143;SDS011;7152;48.348;10.980;2023-05-10T06:42:06;1.00;;;1.00;;
14143;SDS011;7152;48.348;10.980;2023-05-10T06:44:33;3.23;;;1.00;;
14143;SDS011;7152;48.348;10.980;2023-05-10T06:46:58;1.10;;;0.90;;
14143;SDS011;7152;48.348;10.980;2023-05-10T06:49:24;1.17;;;1.10;;
14143;SDS011;7152;48.348;10.980;2023-05-10T06:51:49;1.03;;;1.00;;
14143;SDS011;7152;48.348;10.980;2023-05-10T06:54:15;2.27;;;1.37;;
14143;SDS011;7152;48.348;10.980;2023-05-10T06:56:41;2.07;;;0.90;;
14143;SDS011;7152;48.348;10.980;2023-05-10T06:59:06;2.20;;;1.10;;
14143;SDS011;7152;48.348;10.980;2023-05-10T07:01:32;1.20;;;1.10;;
14143;SDS011;7152;48.348;10.980;2023-05-10T07:03:58;1.60;;;0.80;;
14143;SDS011;7152;48.348;10.980;2023-05-10T07:06:23;0.80;;;0.80;;
14143;SDS011;7152;48.348;10.980;2023-05-10T07:08:49;1.27;;;0.87;;
14143;SDS011;7152;48.348;10.980;2023-05-10T07:11:14;0.90;;;0.77;;
14143;SDS011;7152;48.348;10.980;2023-05-10T07:13:40;3.50;;;0.93;;
14143;SDS011;7152;48.348;10.980;2023-05-10T07:16:08;1.80;;;0.87;;
14143;SDS011;7152;48.348;10.980;2023-05-10T07:18:35;0.97;;;0.70;;
14143;SDS011;7152;48.348;10.980;2023-05-10T07:21:01;2.00;;;0.70;;
14143;SDS011;7152;48.348;10.980;2023-05-10T07:23:26;2.10;;;0.90;;
14143;SDS011;7152;48.348;10.980;2023-05-10T07:25:52;1.27;;;1.10;;
14143;SDS011;7152;48.348;10.980;2023-05-10T07:28:18;1.83;;;0.90;;
14143;SDS011;7152;48.348;10.980;2023-05-10T07:30:44;1.37;;;0.70;;
14143;SDS011;7152;48.348;10.980;2023-05-10T07:33:10;1.30;;;1.00;;
14143;SDS011;7152;48.348;10.980;2023-05-10T07:35:37;1.57;;;0.70;;
14143;SDS011;7152;48.348;10.980;2023-05-10T07:38:03;1.37;;;0.90;;
14143;SDS011;7152;48.348;10.980;2023-05-10T07:40:29;1.00;;;0.70;;
14143;SDS011;7152;48.348;10.980;2023-05-10T07:42:55;1.37;;;0.80;;
14143;SDS011;7152;48.348;10.980;2023-05-10T07:45:21;1.43;;;0.50;;
14143;SDS011;7152;48.348;10.980;2023-05-10T07:47:47;0.80;;;0.70;;
14143;SDS011;7152;48.348;10.980;2023-05-10T07:50:12;2.20;;;0.60;;
14143;SDS011;7152;48.348;10.980;2023-05-10T07:52:39;0.77;;;0.60;;
14143;SDS011;7152;48.348;10.980;2023-05-10T07:55:04;0.70;;;0.70;;
14143;SDS011;7152;48.348;10.980;2023-05-10T07:57:32;1.80;;;0.67;;
14143;SDS011;7152;48.348;10.980;2023-05-10T07:59:58;0.60;;;0.50;;
14143;SDS011;7152;48.348;10.980;2023-05-10T08:02:24;0.80;;;0.50;;
14143;SDS011;7152;48.348;10.980;2023-05-10T08:04:49;0.70;;;0.60;;
14143;SDS011;7152;48.348;10.980;2023-05-10T08:07:15;1.77;;;0.50;;
14143;SDS011;7152;48.348;10.980;2023-05-10T08:09:41;1.23;;;0.60;;
14143;SDS011;7152;48.348;10.980;2023-05-10T08:12:06;1.73;;;0.67;;
14143;SDS011;7152;48.348;10.980;2023-05-10T08:14:32;1.07;;;0.67;;
14143;SDS011;7152;48.348;10.980;2023-05-10T08:16:58;2.07;;;0.67;;
14143;SDS011;7152;48.348;10.980;2023-05-10T08:19:23;0.40;;;0.40;;
14143;SDS011;7152;48.348;10.980;2023-05-10T08:21:49;1.30;;;0.50;;
14143;SDS011;7152;48.348;10.980;2023-05-10T08:24:14;0.60;;;0.50;;
14143;SDS011;7152;48.348;10.980;2023-05-10T08:26:40;0.47;;;0.47;;
14143;SDS011;7152;48.348;10.980;2023-05-10T08:29:06;1.37;;;0.70;;
14143;SDS011;7152;48.348;10.980;2023-05-10T08:31:31;2.30;;;0.77;;
14143;SDS011;7152;48.348;10.980;2023-05-10T08:33:57;0.63;;;0.60;;
14143;SDS011;7152;48.348;10.980;2023-05-10T08:36:23;0.97;;;0.70;;
14143;SDS011;7152;48.348;10.980;2023-05-10T08:38:52;1.43;;;0.70;;
14143;SDS011;7152;48.348;10.980;2023-05-10T08:41:21;1.37;;;0.60;;
14143;SDS011;7152;48.348;10.980;2023-05-10T08:43:50;0.97;;;0.60;;
14143;SDS011;7152;48.348;10.980;2023-05-10T08:46:17;0.40;;;0.40;;
14143;SDS011;7152;48.348;10.980;2023-05-10T08:48:47;0.73;;;0.70;;
14143;SDS011;7152;48.348;10.980;2023-05-10T08:51:18;2.23;;;0.50;;
14143;SDS011;7152;48.348;10.980;2023-05-10T08:53:47;2.40;;;0.50;;
14143;SDS011;7152;48.348;10.980;2023-05-10T08:56:13;0.60;;;0.60;;
14143;SDS011;7152;48.348;10.980;2023-05-10T08:58:41;1.00;;;0.53;;
14143;SDS011;7152;48.348;10.980;2023-05-10T09:01:07;1.20;;;0.63;;
14143;SDS011;7152;48.348;10.980;2023-05-10T09:03:34;2.33;;;0.60;;
14143;SDS011;7152;48.348;10.980;2023-05-10T09:06:00;1.77;;;0.87;;
14143;SDS011;7152;48.348;10.980;2023-05-10T09:08:26;1.23;;;0.50;;
14143;SDS011;7152;48.348;10.980;2023-05-10T09:10:52;0.50;;;0.47;;
14143;SDS011;7152;48.348;10.980;2023-05-10T09:13:19;1.03;;;0.87;;
14143;SDS011;7152;48.348;10.980;2023-05-10T09:15:45;1.27;;;0.60;;
14143;SDS011;7152;48.348;10.980;2023-05-10T09:18:13;0.60;;;0.57;;
14143;SDS011;7152;48.348;10.980;2023-05-10T09:20:38;2.00;;;0.60;;
14143;SDS011;7152;48.348;10.980;2023-05-10T09:23:05;1.33;;;0.80;;
14143;SDS011;7152;48.348;10.980;2023-05-10T09:25:30;1.10;;;0.40;;
14143;SDS011;7152;48.348;10.980;2023-05-10T09:27:58;1.80;;;0.50;;
14143;SDS011;7152;48.348;10.980;2023-05-10T09:30:25;1.73;;;0.47;;
14143;SDS011;7152;48.348;10.980;2023-05-10T09:32:53;1.37;;;0.70;;
14143;SDS011;7152;48.348;10.980;2023-05-10T09:35:21;1.20;;;0.63;;
14143;SDS011;7152;48.348;10.980;2023-05-10T09:37:49;1.70;;;0.90;;
14143;SDS011;7152;48.348;10.980;2023-05-10T09:40:22;1.20;;;0.90;;
14143;SDS011;7152;48.348;10.980;2023-05-10T09:42:59;1.27;;;0.80;;
14143;SDS011;7152;48.348;10.980;2023-05-10T09:45:27;2.00;;;1.00;;
14143;SDS011;7152;48.348;10.980;2023-05-10T09:47:55;2.27;;;0.80;;
14143;SDS011;7152;48.348;10.980;2023-05-10T09:50:21;0.87;;;0.70;;
14143;SDS011;7152;48.348;10.980;2023-05-10T09:52:54;1.70;;;0.80;;
14143;SDS011;7152;48.348;10.980;2023-05-10T09:55:25;1.10;;;0.80;;
14143;SDS011;7152;48.348;10.980;2023-05-10T09:58:09;2.20;;;0.90;;
14143;SDS011;7152;48.348;10.980;2023-05-10T10:00:39;1.00;;;0.73;;
14143;SDS011;7152;48.348;10.980;2023-05-10T10:03:06;2.33;;;0.73;;
14143;SDS011;7152;48.348;10.980;2023-05-10T10:05:41;1.27;;;0.90;;
14143;SDS011;7152;48.348;10.980;2023-05-10T10:08:08;0.60;;;0.60;;
14143;SDS011;7152;48.348;10.980;2023-05-10T10:10:34;1.10;;;0.97;;
14143;SDS011;7152;48.348;10.980;2023-05-10T10:13:00;0.70;;;0.70;;
14143;SDS011;7152;48.348;10.980;2023-05-10T10:15:26;3.63;;;1.43;;
14143;SDS011;7152;48.348;10.980;2023-05-10T10:17:52;0.90;;;0.90;;
14143;SDS011;7152;48.348;10.980;2023-05-10T10:20:19;1.30;;;1.20;;
14143;SDS011;7152;48.348;10.980;2023-05-10T10:22:46;1.40;;;1.30;;
14143;SDS011;7152;48.348;10.980;2023-05-10T10:25:13;1.70;;;1.50;;
14143;SDS011;7152;48.348;10.980;2023-05-10T10:35:52;1.10;;;0.87;;
14143;SDS011;7152;48.348;10.980;2023-05-10T10:38:19;0.80;;;0.80;;
14143;SDS011;7152;48.348;10.980;2023-05-10T10:40:45;1.13;;;0.70;;
14143;SDS011;7152;48.348;10.980;2023-05-10T10:43:27;1.53;;;0.80;;
14143;SDS011;7152;48.348;10.980;2023-05-10T10:48:49;1.63;;;0.80;;
14143;SDS011;7152;48.348;10.980;2023-05-10T10:51:32;2.80;;;1.20;;
14143;SDS011;7152;48.348;10.980;2023-05-10T10:54:08;1.63;;;0.90;;
14143;SDS011;7152;48.348;10.980;2023-05-10T10:56:35;1.30;;;1.20;;
14143;SDS011;7152;48.348;10.980;2023-05-10T10:59:00;2.13;;;1.00;;
14143;SDS011;7152;48.348;10.980;2023-05-10T11:01:26;2.33;;;1.20;;
14143;SDS011;7152;48.348;10.980;2023-05-10T11:06:30;1.10;;;1.00;;
14143;SDS011;7152;48.348;10.980;2023-05-10T11:08:57;1.63;;;1.00;;
14143;SDS011;7152;48.348;10.980;2023-05-10T11:11:23;1.60;;;0.90;;
14143;SDS011;7152;48.348;10.980;2023-05-10T11:13:48;1.13;;;0.70;;
14143;SDS011;7152;48.348;10.980;2023-05-10T11:21:45;0.80;;;0.80;;
14143;SDS011;7152;48.348;10.980;2023-05-10T11:24:15;2.20;;;1.00;;
14143;SDS011;7152;48.348;10.980;2023-05-10T11:26:42;1.23;;;1.13;;
14143;SDS011;7152;48.348;10.980;2023-05-10T11:29:08;1.10;;;0.93;;
14143;SDS011;7152;48.348;10.980;2023-05-10T11:31:34;1.00;;;0.83;;
14143;SDS011;7152;48.348;10.980;2023-05-10T11:34:06;1.80;;;0.93;;
14143;SDS011;7152;48.348;10.980;2023-05-10T11:36:33;1.03;;;0.93;;
14143;SDS011;7152;48.348;10.980;2023-05-10T11:39:00;3.27;;;1.20;;
14143;SDS011;7152;48.348;10.980;2023-05-10T11:41:27;1.40;;;1.00;;
14143;SDS011;7152;48.348;10.980;2023-05-10T11:43:54;1.40;;;1.30;;
14143;SDS011;7152;48.348;10.980;2023-05-10T11:46:20;1.07;;;0.93;;
14143;SDS011;7152;48.348;10.980;2023-05-10T11:48:53;3.33;;;1.63;;
14143;SDS011;7152;48.348;10.980;2023-05-10T11:51:21;1.70;;;1.40;;
14143;SDS011;7152;48.348;10.980;2023-05-10T11:53:49;1.63;;;1.03;;
14143;SDS011;7152;48.348;10.980;2023-05-10T11:56:15;1.87;;;1.03;;
14143;SDS011;7152;48.348;10.980;2023-05-10T11:58:41;1.93;;;1.40;;
14143;SDS011;7152;48.348;10.980;2023-05-10T12:01:07;0.70;;;0.53;;
14143;SDS011;7152;48.348;10.980;2023-05-10T12:03:34;3.17;;;0.47;;
14143;SDS011;7152;48.348;10.980;2023-05-10T12:05:59;2.00;;;0.80;;
14143;SDS011;7152;48.348;10.980;2023-05-10T12:08:27;1.20;;;0.53;;
14143;SDS011;7152;48.348;10.980;2023-05-10T12:11:03;1.50;;;0.90;;
14143;SDS011;7152;48.348;10.980;2023-05-10T12:13:37;0.97;;;0.67;;
14143;SDS011;7152;48.348;10.980;2023-05-10T12:16:14;0.60;;;0.60;;
14143;SDS011;7152;48.348;10.980;2023-05-10T12:18:41;1.67;;;0.73;;
14143;SDS011;7152;48.348;10.980;2023-05-10T12:21:12;0.97;;;0.87;;
14143;SDS011;7152;48.348;10.980;2023-05-10T12:23:39;2.40;;;0.77;;
14143;SDS011;7152;48.348;10.980;2023-05-10T12:26:05;0.83;;;0.83;;
14143;SDS011;7152;48.348;10.980;2023-05-10T12:28:31;4.57;;;1.20;;
14143;SDS011;7152;48.348;10.980;2023-05-10T12:30:57;2.00;;;0.93;;
14143;SDS011;7152;48.348;10.980;2023-05-10T12:33:24;1.57;;;0.63;;
14143;SDS011;7152;48.348;10.980;2023-05-10T12:35:51;1.07;;;0.70;;
14143;SDS011;7152;48.348;10.980;2023-05-10T12:40:51;1.23;;;0.70;;
14143;SDS011;7152;48.348;10.980;2023-05-10T12:43:16;1.37;;;0.70;;
14143;SDS011;7152;48.348;10.980;2023-05-10T12:45:42;0.90;;;0.90;;
14143;SDS011;7152;48.348;10.980;2023-05-10T12:48:12;1.07;;;0.90;;
14143;SDS011;7152;48.348;10.980;2023-05-10T12:50:38;1.30;;;1.00;;
14143;SDS011;7152;48.348;10.980;2023-05-10T12:53:04;1.73;;;0.90;;
14143;SDS011;7152;48.348;10.980;2023-05-10T12:55:29;2.33;;;1.30;;
14143;SDS011;7152;48.348;10.980;2023-05-10T12:57:55;0.90;;;0.90;;
14143;SDS011;7152;48.348;10.980;2023-05-10T13:00:21;1.80;;;1.20;;
14143;SDS011;7152;48.348;10.980;2023-05-10T13:02:46;2.37;;;1.50;;
14143;SDS011;7152;48.348;10.980;2023-05-10T13:05:12;2.50;;;1.37;;
14143;SDS011;7152;48.348;10.980;2023-05-10T13:07:38;1.57;;;1.00;;
14143;SDS011;7152;48.348;10.980;2023-05-10T13:10:04;1.13;;;1.00;;
14143;SDS011;7152;48.348;10.980;2023-05-10T13:12:31;1.50;;;1.17;;
14143;SDS011;7152;48.348;10.980;2023-05-10T13:14:57;1.20;;;1.00;;
14143;SDS011;7152;48.348;10.980;2023-05-10T13:17:22;1.57;;;1.20;;
14143;SDS011;7152;48.348;10.980;2023-05-10T13:19:48;0.93;;;0.90;;
14143;SDS011;7152;48.348;10.980;2023-05-10T13:22:14;3.17;;;1.63;;
14143;SDS011;7152;48.348;10.980;2023-05-10T13:24:39;1.33;;;1.23;;
14143;SDS011;7152;48.348;10.980;2023-05-10T13:27:05;1.67;;;1.47;;
14143;SDS011;7152;48.348;10.980;2023-05-10T13:29:30;1.40;;;1.30;;
14143;SDS011;7152;48.348;10.980;2023-05-10T13:31:56;3.80;;;1.50;;
14143;SDS011;7152;48.348;10.980;2023-05-10T13:34:22;2.50;;;1.77;;
14143;SDS011;7152;48.348;10.980;2023-05-10T13:36:49;1.90;;;1.77;;
14143;SDS011;7152;48.348;10.980;2023-05-10T13:39:14;2.40;;;2.00;;
14143;SDS011;7152;48.348;10.980;2023-05-10T13:41:40;2.17;;;1.80;;
14143;SDS011;7152;48.348;10.980;2023-05-10T13:44:06;3.30;;;2.20;;
14143;SDS011;7152;48.348;10.980;2023-05-10T13:46:32;1.80;;;1.70;;
14143;SDS011;7152;48.348;10.980;2023-05-10T13:48:57;2.23;;;1.70;;
14143;SDS011;7152;48.348;10.980;2023-05-10T13:51:23;2.10;;;1.80;;
14143;SDS011;7152;48.348;10.980;2023-05-10T13:53:49;2.40;;;2.20;;
14143;SDS011;7152;48.348;10.980;2023-05-10T13:56:14;3.07;;;2.43;;
14143;SDS011;7152;48.348;10.980;2023-05-10T13:58:40;2.60;;;2.40;;
14143;SDS011;7152;48.348;10.980;2023-05-10T14:01:06;2.03;;;1.93;;
14143;SDS011;7152;48.348;10.980;2023-05-10T14:03:32;3.07;;;2.50;;
14143;SDS011;7152;48.348;10.980;2023-05-10T14:05:58;2.33;;;2.07;;
14143;SDS011;7152;48.348;10.980;2023-05-10T14:08:23;2.03;;;1.93;;
14143;SDS011;7152;48.348;10.980;2023-05-10T14:10:49;1.77;;;1.67;;
14143;SDS011;7152;48.348;10.980;2023-05-10T14:13:15;2.27;;;2.10;;
14143;SDS011;7152;48.348;10.980;2023-05-10T14:15:41;2.83;;;1.73;;
14143;SDS011;7152;48.348;10.980;2023-05-10T14:18:06;2.30;;;1.80;;
14143;SDS011;7152;48.348;10.980;2023-05-10T14:20:32;3.07;;;1.27;;
14143;SDS011;7152;48.348;10.980;2023-05-10T14:22:59;2.37;;;0.73;;
14143;SDS011;7152;48.348;10.980;2023-05-10T14:25:25;4.40;;;0.80;;
14143;SDS011;7152;48.348;10.980;2023-05-10T14:27:50;1.73;;;0.80;;
14143;SDS011;7152;48.348;10.980;2023-05-10T14:30:19;2.80;;;1.10;;
14143;SDS011;7152;48.348;10.980;2023-05-10T14:32:44;7.20;;;1.07;;
14143;SDS011;7152;48.348;10.980;2023-05-10T14:35:10;1.43;;;0.70;;
14143;SDS011;7152;48.348;10.980;2023-05-10T14:37:37;6.47;;;1.33;;
14143;SDS011;7152;48.348;10.980;2023-05-10T14:40:03;1.83;;;1.10;;
14143;SDS011;7152;48.348;10.980;2023-05-10T14:42:29;4.37;;;1.30;;
14143;SDS011;7152;48.348;10.980;2023-05-10T14:44:56;3.00;;;1.03;;
14143;SDS011;7152;48.348;10.980;2023-05-10T14:47:22;4.50;;;2.80;;
14143;SDS011;7152;48.348;10.980;2023-05-10T14:49:47;3.67;;;2.20;;
14143;SDS011;7152;48.348;10.980;2023-05-10T14:52:13;4.40;;;1.50;;
14143;SDS011;7152;48.348;10.980;2023-05-10T14:54:39;17.30;;;1.90;;
14143;SDS011;7152;48.348;10.980;2023-05-10T14:57:05;2.03;;;1.17;;
14143;SDS011;7152;48.348;10.980;2023-05-10T14:59:31;1.10;;;1.00;;
14143;SDS011;7152;48.348;10.980;2023-05-10T15:01:57;2.40;;;1.10;;
14143;SDS011;7152;48.348;10.980;2023-05-10T15:04:22;2.07;;;1.20;;
14143;SDS011;7152;48.348;10.980;2023-05-10T15:06:48;2.23;;;1.10;;
14143;SDS011;7152;48.348;10.980;2023-05-10T15:09:14;2.13;;;1.50;;
14143;SDS011;7152;48.348;10.980;2023-05-10T15:11:41;11.03;;;1.40;;
14143;SDS011;7152;48.348;10.980;2023-05-10T15:14:07;4.20;;;1.30;;
14143;SDS011;7152;48.348;10.980;2023-05-10T15:16:32;2.20;;;1.40;;
14143;SDS011;7152;48.348;10.980;2023-05-10T15:18:58;2.23;;;1.77;;
14143;SDS011;7152;48.348;10.980;2023-05-10T15:21:24;12.77;;;2.00;;
14143;SDS011;7152;48.348;10.980;2023-05-10T15:23:49;2.93;;;1.80;;
14143;SDS011;7152;48.348;10.980;2023-05-10T15:26:15;2.37;;;1.53;;
14143;SDS011;7152;48.348;10.980;2023-05-10T15:28:41;1.93;;;1.77;;
14143;SDS011;7152;48.348;10.980;2023-05-10T15:31:06;4.07;;;2.07;;